Time;durP1;ratioP1;P1;durP2;ratioP2;P2;SDS_P1;SDS_P2;PMS_P1;PMS_P2;Temp;Humidity;BMP_temperature;BMP_pressure;BME280_temperature;BME280_humidity;BME280_pressure;Samples;Min_cycle;Max_cycle;Signal;HPM_P1;HPM_P2
2022/09/07 00:00:19;;;;;;;9.15;5.20;;;;;;;18.13;99.78;101184.22;5074032;28;20283;-61
2022/09/07 00:02:45;;;;;;;6.45;4.88;;;;;;;18.04;100.00;101185.41;5073880;28;20051;-59
2022/09/07 00:05:10;;;;;;;6.57;4.85;;;;;;;17.95;100.00;101183.16;5073861;28;20174;-60
2022/09/07 00:07:35;;;;;;;7.20;4.88;;;;;;;17.93;100.00;101183.19;5074348;28;20032;-58
2022/09/07 00:10:01;;;;;;;5.45;4.20;;;;;;;17.82;100.00;101168.66;5073843;28;20418;-58
2022/09/07 00:12:26;;;;;;;6.22;4.68;;;;;;;17.83;100.00;101157.16;5073912;28;20065;-59
2022/09/07 00:14:51;;;;;;;4.70;3.73;;;;;;;17.81;100.00;101157.19;5073679;28;20452;-58
2022/09/07 00:17:16;;;;;;;5.43;3.95;;;;;;;17.79;100.00;101150.25;5073777;28;20270;-59
2022/09/07 00:19:42;;;;;;;6.40;4.17;;;;;;;17.71;100.00;101143.44;5073641;28;20145;-59
2022/09/07 00:22:07;;;;;;;4.40;3.97;;;;;;;17.64;100.00;101138.44;5073418;28;20347;-60
2022/09/07 00:24:32;;;;;;;5.65;3.70;;;;;;;17.68;100.00;101156.78;5073450;28;20036;-60
2022/09/07 00:26:58;;;;;;;5.60;3.72;;;;;;;17.74;100.00;101153.06;5073618;28;20028;-60
2022/09/07 00:29:24;;;;;;;4.80;3.95;;;;;;;17.62;100.00;101138.47;5073424;28;20376;-60
2022/09/07 00:31:49;;;;;;;6.95;4.10;;;;;;;17.54;100.00;101144.97;5073376;28;20041;-62
2022/09/07 00:34:14;;;;;;;5.43;4.20;;;;;;;17.50;100.00;101152.16;5073302;28;20505;-60
2022/09/07 00:36:39;;;;;;;6.43;4.20;;;;;;;17.44;100.00;101148.88;5073182;28;20032;-58
2022/09/07 00:39:05;;;;;;;8.80;4.68;;;;;;;17.41;100.00;101144.56;5072765;28;20306;-58
2022/09/07 00:41:30;;;;;;;6.63;4.20;;;;;;;17.54;100.00;101137.88;5072863;28;20060;-60
2022/09/07 00:44:17;;;;;;;7.55;4.50;;;;;;;17.61;100.00;101142.03;5071683;28;20040;-60
2022/09/07 00:46:43;;;;;;;6.05;4.35;;;;;;;17.44;100.00;101125.06;5072797;28;20036;-61
2022/09/07 00:49:16;;;;;;;5.85;4.55;;;;;;;17.34;100.00;101112.16;5073082;28;20029;-61
2022/09/07 00:51:50;;;;;;;5.90;4.30;;;;;;;17.26;100.00;101102.81;5071768;28;20332;-58
2022/09/07 00:54:40;;;;;;;5.97;4.43;;;;;;;17.21;100.00;101100.31;5072928;28;20469;-60
2022/09/07 00:57:06;;;;;;;8.05;4.60;;;;;;;17.05;100.00;101092.09;5072961;28;20086;-58
2022/09/07 00:59:38;;;;;;;5.97;4.45;;;;;;;17.15;100.00;101099.66;5072853;28;20040;-59
2022/09/07 01:02:04;;;;;;;5.40;4.38;;;;;;;17.00;100.00;101090.50;5072771;28;20024;-60
2022/09/07 01:04:31;;;;;;;5.43;4.38;;;;;;;16.96;100.00;101086.28;5072385;28;20028;-58
2022/09/07 01:06:56;;;;;;;7.93;5.20;;;;;;;17.07;100.00;101107.91;5072696;28;20028;-61
2022/09/07 01:09:24;;;;;;;5.90;4.47;;;;;;;17.01;100.00;101116.03;5072628;28;20029;-60
2022/09/07 01:11:51;;;;;;;6.75;4.60;;;;;;;17.07;100.00;101115.81;5072576;28;20032;-62
2022/09/07 01:14:25;;;;;;;7.18;4.38;;;;;;;17.03;100.00;101096.56;5072563;28;20522;-60
2022/09/07 01:17:27;;;;;;;6.25;4.78;;;;;;;17.10;100.00;101109.56;5072575;28;20036;-61
2022/09/07 01:20:11;;;;;;;5.50;4.72;;;;;;;17.17;100.00;101103.13;5072154;28;20448;-60
2022/09/07 01:22:54;;;;;;;5.85;4.88;;;;;;;17.17;100.00;101105.75;5072295;28;20538;-61
2022/09/07 01:25:43;;;;;;;7.78;4.75;;;;;;;17.15;100.00;101112.88;5072502;28;20040;-60
2022/09/07 01:28:08;;;;;;;6.32;4.43;;;;;;;17.20;100.00;101108.31;5072226;28;20036;-60
2022/09/07 01:30:37;;;;;;;6.18;4.75;;;;;;;17.14;100.00;101111.19;5072003;28;20111;-61
2022/09/07 01:33:18;;;;;;;6.20;4.18;;;;;;;17.14;100.00;101108.56;5072353;28;20401;-60
2022/09/07 01:35:57;;;;;;;6.43;4.25;;;;;;;17.11;100.00;101113.94;5072340;28;20036;-59
2022/09/07 01:38:43;;;;;;;5.47;4.32;;;;;;;17.18;100.00;101112.78;5072283;28;20115;-60
2022/09/07 01:41:27;;;;;;;5.90;4.65;;;;;;;17.14;100.00;101113.84;5071677;28;20051;-59
2022/09/07 01:44:16;;;;;;;6.28;4.30;;;;;;;17.26;100.00;101111.59;5072147;28;20050;-60
2022/09/07 01:46:49;;;;;;;6.18;4.28;;;;;;;17.33;100.00;101104.28;5072005;28;20036;-59
2022/09/07 01:49:38;;;;;;;6.13;4.20;;;;;;;17.31;100.00;101109.66;5071928;28;20032;-60
2022/09/07 01:52:10;;;;;;;7.05;4.70;;;;;;;17.36;100.00;101105.03;5071545;28;20048;-59
2022/09/07 01:54:44;;;;;;;5.65;4.40;;;;;;;17.36;100.00;101112.09;5072041;28;20058;-61
2022/09/07 01:57:25;;;;;;;6.30;4.43;;;;;;;17.35;100.00;101110.38;5071888;28;20474;-61
2022/09/07 02:00:01;;;;;;;5.18;4.47;;;;;;;17.38;100.00;101111.13;5071676;28;20032;-61
2022/09/07 02:02:32;;;;;;;5.47;4.28;;;;;;;17.43;100.00;101116.25;5071727;28;20439;-59
2022/09/07 02:05:08;;;;;;;6.28;4.75;;;;;;;17.34;100.00;101113.94;5071700;28;20451;-59
2022/09/07 02:07:56;;;;;;;5.10;4.03;;;;;;;17.34;100.00;101113.94;5071729;28;20096;-61
2022/09/07 02:10:32;;;;;;;5.80;4.72;;;;;;;17.35;100.00;101110.38;5071553;28;20036;-59
2022/09/07 02:13:28;;;;;;;5.10;4.43;;;;;;;17.38;100.00;101104.97;5071845;28;20040;-60
2022/09/07 02:16:00;;;;;;;6.03;4.40;;;;;;;17.27;100.00;101100.09;5070621;28;20380;-62
2022/09/07 02:18:33;;;;;;;5.70;4.70;;;;;;;17.33;100.00;101106.94;5071792;28;20035;-61
2022/09/07 02:21:01;;;;;;;5.43;4.10;;;;;;;17.31;100.00;101108.78;5071566;28;20048;-61
2022/09/07 02:23:37;;;;;;;6.18;4.72;;;;;;;17.29;100.00;101106.19;5071327;28;20075;-61
2022/09/07 02:26:09;;;;;;;6.72;4.57;;;;;;;17.24;100.00;101105.50;5071497;28;20028;-60
2022/09/07 02:28:37;;;;;;;4.80;4.30;;;;;;;17.17;100.00;101109.28;5071489;28;20040;-61
2022/09/07 02:31:03;;;;;;;6.25;4.75;;;;;;;17.16;100.00;101109.31;5071298;28;20043;-61
2022/09/07 02:33:29;;;;;;;6.32;4.80;;;;;;;17.15;100.00;101112.88;5071518;28;20032;-62
2022/09/07 02:35:55;;;;;;;5.68;4.45;;;;;;;17.12;100.00;101110.38;5071494;28;20362;-60
2022/09/07 02:38:21;;;;;;;5.82;4.70;;;;;;;17.13;100.00;101105.03;5071468;28;20055;-61
2022/09/07 02:40:52;;;;;;;5.93;4.93;;;;;;;17.02;100.00;101110.69;5071172;28;20448;-59
2022/09/07 02:43:20;;;;;;;6.28;5.03;;;;;;;17.09;100.00;101107.84;5071028;28;20059;-59
2022/09/07 02:46:04;;;;;;;6.35;4.75;;;;;;;17.08;100.00;101108.75;5071315;28;20526;-60
2022/09/07 02:48:54;;;;;;;6.07;4.53;;;;;;;17.13;100.00;101104.19;5071407;28;20089;-62
2022/09/07 02:51:48;;;;;;;5.35;4.70;;;;;;;17.08;100.00;101100.81;5071336;28;20032;-60
2022/09/07 02:54:37;;;;;;;6.97;5.22;;;;;;;17.04;100.00;101108.00;5071311;28;20087;-60
2022/09/07 02:57:06;;;;;;;7.32;5.35;;;;;;;16.94;100.00;101086.31;5071421;28;20032;-61
2022/09/07 02:59:50;;;;;;;6.43;4.57;;;;;;;17.06;100.00;101106.16;5071242;28;20036;-61
2022/09/07 03:02:27;;;;;;;7.32;5.40;;;;;;;17.06;100.00;101106.16;5071120;28;20048;-60
2022/09/07 03:05:15;;;;;;;8.52;5.57;;;;;;;17.01;100.00;101113.38;5070984;28;20047;-59
2022/09/07 03:08:00;;;;;;;7.53;5.80;;;;;;;16.98;100.00;101111.72;5071236;28;20511;-62
2022/09/07 03:10:27;;;;;;;6.70;5.78;;;;;;;17.03;100.00;101108.91;5071186;28;20028;-60
2022/09/07 03:12:52;;;;;;;10.25;5.90;;;;;;;17.07;100.00;101114.97;5070966;28;20489;-60
2022/09/07 03:15:24;;;;;;;6.78;5.63;;;;;;;17.15;100.00;101102.31;5071103;28;20040;-60
2022/09/07 03:17:49;;;;;;;;;;;;;;;17.24;100.00;101105.50;5071454;28;20036;-61
2022/09/07 03:20:18;;;;;;;8.27;5.57;;;;;;;17.29;100.00;101097.41;5071034;28;19912;-61
2022/09/07 03:22:45;;;;;;;7.90;6.03;;;;;;;17.29;100.00;101095.63;5070922;28;20036;-60
2022/09/07 03:25:11;;;;;;;7.32;5.25;;;;;;;17.30;100.00;101075.31;5070855;28;20032;-60
2022/09/07 03:27:36;;;;;;;8.00;5.80;;;;;;;17.29;100.00;101087.69;5074266;28;20032;-60
2022/09/07 03:30:03;;;;;;;8.23;5.75;;;;;;;17.34;100.00;101095.44;5074607;28;20360;-61
2022/09/07 03:32:31;;;;;;;6.60;5.90;;;;;;;17.29;100.00;101100.91;5074687;28;20028;-61
2022/09/07 03:34:57;;;;;;;6.22;5.60;;;;;;;17.36;100.00;101105.03;5074536;28;20722;-60
2022/09/07 03:37:22;;;;;;;6.43;5.38;;;;;;;17.38;100.00;101097.03;5074377;28;20051;-61
2022/09/07 03:39:47;;;;;;;7.57;6.00;;;;;;;17.39;100.00;101086.41;5074423;28;20044;-61
2022/09/07 03:42:13;;;;;;;6.37;5.73;;;;;;;17.40;100.00;101089.91;5074270;28;20052;-60
2022/09/07 03:44:38;;;;;;;7.55;6.05;;;;;;;17.43;100.00;101097.75;5074233;28;20355;-59
2022/09/07 03:47:04;;;;;;;6.43;5.65;;;;;;;17.47;100.00;101107.31;5074352;28;20362;-60
2022/09/07 03:49:29;;;;;;;7.28;5.95;;;;;;;17.40;100.00;101109.31;5074206;28;20135;-60
2022/09/07 03:51:55;;;;;;;9.00;6.28;;;;;;;17.40;100.00;101104.00;5074048;28;20539;-61
2022/09/07 03:54:21;;;;;;;8.45;6.20;;;;;;;17.40;100.00;101100.50;5074042;28;20436;-60
2022/09/07 03:56:46;;;;;;;7.97;6.30;;;;;;;17.39;100.00;101097.00;5074089;28;20043;-60
2022/09/07 03:59:11;;;;;;;7.43;6.10;;;;;;;17.22;100.00;101065.00;5074159;28;20029;-60
2022/09/07 04:01:36;;;;;;;7.40;5.97;;;;;;;17.26;100.00;101081.63;5074155;28;20715;-61
2022/09/07 04:04:02;;;;;;;8.93;6.43;;;;;;;17.26;100.00;101076.34;5074082;28;20036;-59
2022/09/07 04:06:28;;;;;;;7.53;6.50;;;;;;;17.26;100.00;101066.63;5073706;28;20071;-59
2022/09/07 04:08:55;;;;;;;8.63;6.78;;;;;;;17.29;100.00;101063.00;5073969;28;20037;-58
2022/09/07 04:11:21;;;;;;;7.88;6.15;;;;;;;17.35;100.00;101063.63;5073504;28;20460;-61
2022/09/07 04:13:46;;;;;;;7.00;6.22;;;;;;;17.34;100.00;101059.25;5073640;28;20071;-60
2022/09/07 04:16:13;;;;;;;8.40;6.47;;;;;;;17.39;100.00;101056.44;5073871;28;20102;-60
2022/09/07 04:18:38;;;;;;;9.60;6.43;;;;;;;17.36;100.00;101049.47;5073650;28;20058;-60
2022/09/07 04:21:04;;;;;;;9.07;6.57;;;;;;;17.35;100.00;101041.59;5073630;28;20423;-60
2022/09/07 04:23:29;;;;;;;7.72;6.15;;;;;;;17.34;100.00;101045.16;5073533;28;20036;-59
2022/09/07 04:25:54;;;;;;;7.88;6.53;;;;;;;17.30;100.00;101051.50;5073511;28;20143;-61
2022/09/07 04:28:20;;;;;;;7.65;6.60;;;;;;;17.21;100.00;101062.44;5073622;28;20492;-61
2022/09/07 04:30:46;;;;;;;7.93;6.75;;;;;;;17.19;100.00;101064.25;5073620;28;20109;-61
2022/09/07 04:33:12;;;;;;;8.35;6.75;;;;;;;17.17;100.00;101080.19;5073323;28;20059;-62
2022/09/07 04:35:41;;;;;;;9.40;7.13;;;;;;;17.11;100.00;101076.91;5073461;28;20083;-62
2022/09/07 04:38:14;;;;;;;8.30;6.65;;;;;;;17.08;100.00;101072.59;5072210;28;20036;-59
2022/09/07 04:40:40;;;;;;;11.02;7.50;;;;;;;17.04;100.00;101077.13;5073105;28;20036;-63
2022/09/07 04:43:07;;;;;;;8.38;7.03;;;;;;;16.96;100.00;101067.78;5072958;28;20134;-63
2022/09/07 04:45:35;;;;;;;8.95;7.18;;;;;;;17.08;100.00;101082.31;5065649;28;20044;-63
2022/09/07 04:48:01;;;;;;;7.90;6.80;;;;;;;17.03;100.00;101070.13;5053100;28;20408;-62
2022/09/07 04:50:26;;;;;;;8.43;7.43;;;;;;;17.06;100.00;101077.09;5052959;28;20060;-62
2022/09/07 04:52:51;;;;;;;8.68;7.00;;;;;;;17.08;100.00;101067.31;5052992;28;20035;-61
2022/09/07 04:55:17;;;;;;;7.43;6.70;;;;;;;17.12;100.00;101061.00;5053074;28;20063;-64
2022/09/07 04:57:43;;;;;;;10.15;7.22;;;;;;;17.16;100.00;101073.16;5053060;28;20035;-63
2022/09/07 05:00:11;;;;;;;9.27;7.60;;;;;;;17.14;100.00;101067.09;5052935;28;20451;-63
2022/09/07 05:02:37;;;;;;;8.30;7.45;;;;;;;17.17;100.00;101068.75;5052795;28;20037;-55
2022/09/07 05:05:04;;;;;;;10.18;8.02;;;;;;;17.18;100.00;101073.97;5052656;28;20033;-61
2022/09/07 05:07:29;;;;;;;9.18;7.47;;;;;;;17.14;100.00;101058.31;5052473;28;20432;-61
2022/09/07 05:09:55;;;;;;;9.02;7.82;;;;;;;17.07;100.00;101062.06;5052772;28;20071;-61
2022/09/07 05:12:20;;;;;;;10.20;7.55;;;;;;;17.04;100.00;101049.81;5052671;28;20033;-61
2022/09/07 05:14:46;;;;;;;9.05;7.50;;;;;;;17.07;100.00;101047.06;5052960;28;20128;-61
2022/09/07 05:17:11;;;;;;;10.73;8.05;;;;;;;17.04;100.00;101049.81;5052416;28;20094;-64
2022/09/07 05:19:36;;;;;;;8.98;7.78;;;;;;;16.91;100.00;101044.13;5052604;28;20040;-60
2022/09/07 05:22:01;;;;;;;9.70;7.37;;;;;;;16.94;100.00;101053.75;5052453;28;20029;-61
2022/09/07 05:24:27;;;;;;;9.10;8.02;;;;;;;16.90;100.00;101052.97;5052285;28;20349;-60
2022/09/07 05:26:52;;;;;;;10.05;8.30;;;;;;;16.94;100.00;101067.81;5052244;28;20483;-61
2022/09/07 05:29:18;;;;;;;10.70;8.13;;;;;;;16.91;100.00;101069.72;5052353;28;20043;-61
2022/09/07 05:31:44;;;;;;;10.05;8.65;;;;;;;16.89;100.00;101071.53;5052305;28;20444;-61
2022/09/07 05:34:10;;;;;;;9.65;8.65;;;;;;;16.97;100.00;101072.97;5052314;28;20072;-61
2022/09/07 05:36:36;;;;;;;9.90;8.75;;;;;;;16.96;100.00;101070.41;5051772;28;20119;-60
2022/09/07 05:39:02;;;;;;;10.50;9.00;;;;;;;16.99;100.00;101071.13;5052129;28;20036;-60
2022/09/07 05:41:28;;;;;;;11.70;9.18;;;;;;;17.04;100.00;101074.50;5051746;28;20056;-61
2022/09/07 05:43:53;;;;;;;11.43;8.98;;;;;;;17.03;100.00;101069.25;5052169;28;20039;-61
2022/09/07 05:46:19;;;;;;;11.20;9.95;;;;;;;17.06;100.00;101074.44;5051527;28;20062;-61
2022/09/07 05:48:45;;;;;;;15.15;11.05;;;;;;;17.09;100.00;101070.81;5051708;28;20029;-61
2022/09/07 05:51:12;;;;;;;12.65;10.75;;;;;;;17.16;100.00;101077.59;5051781;28;20036;-60
2022/09/07 05:53:39;;;;;;;19.50;11.68;;;;;;;17.17;100.00;101072.25;5051979;28;20036;-61
2022/09/07 05:56:05;;;;;;;18.17;13.30;;;;;;;17.21;100.00;101073.00;5051903;28;20068;-64
2022/09/07 05:58:31;;;;;;;16.10;13.27;;;;;;;17.17;100.00;101082.81;5051963;28;20041;-59
2022/09/07 06:00:58;;;;;;;16.48;12.13;;;;;;;17.20;100.00;101089.78;5051948;28;20043;-63
2022/09/07 06:03:23;;;;;;;18.05;11.77;;;;;;;17.14;100.00;101090.03;5067094;28;20362;-60
2022/09/07 06:06:02;;;;;;;15.95;12.43;;;;;;;17.08;100.00;101087.59;5071723;28;20048;-59
2022/09/07 06:08:28;;;;;;;13.30;11.90;;;;;;;17.09;100.00;101095.47;5071280;28;20214;-60
2022/09/07 06:10:54;;;;;;;17.52;13.13;;;;;;;17.07;100.00;101096.44;5071631;28;20051;-62
2022/09/07 06:13:19;;;;;;;18.25;12.70;;;;;;;17.12;100.00;101098.03;5072020;28;20435;-62
2022/09/07 06:15:44;;;;;;;17.75;13.07;;;;;;;17.06;100.00;101098.22;5071599;28;20040;-62
2022/09/07 06:18:10;;;;;;;19.25;14.15;;;;;;;17.08;100.00;101095.53;5071507;28;20405;-60
2022/09/07 06:20:35;;;;;;;19.60;15.15;;;;;;;17.08;100.00;101091.13;5071303;28;20041;-60
2022/09/07 06:23:00;;;;;;;21.80;16.70;;;;;;;17.07;100.00;101099.97;5071842;28;20051;-63
2022/09/07 06:25:25;;;;;;;19.75;16.58;;;;;;;17.06;100.00;101100.88;5071618;28;20354;-62
2022/09/07 06:27:52;;;;;;;22.73;17.30;;;;;;;17.10;100.00;101099.00;5071388;28;20062;-60
2022/09/07 06:30:18;;;;;;;24.27;16.38;;;;;;;17.20;100.00;101097.72;5071394;28;20041;-58
2022/09/07 06:32:44;;;;;;;22.95;17.20;;;;;;;17.26;100.00;101113.38;5071397;28;20056;-61
2022/09/07 06:35:10;;;;;;;24.73;18.23;;;;;;;17.34;100.00;101111.31;5071413;28;20068;-61
2022/09/07 06:37:35;;;;;;;26.65;19.20;;;;;;;17.36;100.00;101112.97;5071483;28;20063;-59
2022/09/07 06:40:01;;;;;;;25.67;19.52;;;;;;;17.40;100.00;101111.09;5071325;28;20498;-60
2022/09/07 06:42:27;;;;;;;30.38;21.23;;;;;;;17.40;100.00;101116.38;5071244;28;20788;-61
2022/09/07 06:44:52;;;;;;;32.17;22.20;;;;;;;17.35;100.00;101113.03;5071141;28;20068;-60
2022/09/07 06:47:17;;;;;;;32.00;22.08;;;;;;;17.37;100.00;101112.06;5071183;28;20032;-61
2022/09/07 06:49:43;;;;;;;33.13;23.65;;;;;;;17.39;100.00;101114.66;5071381;28;20029;-62
2022/09/07 06:52:08;;;;;;;32.73;22.93;;;;;;;17.45;100.00;101119.72;5071341;28;20048;-61
2022/09/07 06:54:33;;;;;;;38.25;24.67;;;;;;;17.51;100.00;101115.97;5071390;28;20351;-60
2022/09/07 06:56:58;;;;;;;34.47;24.38;;;;;;;17.50;100.00;101120.38;5068841;28;20123;-60
2022/09/07 06:59:24;;;;;;;31.25;24.65;;;;;;;17.55;100.00;101115.78;5070540;28;20039;-61
2022/09/07 07:01:49;;;;;;;37.42;25.40;;;;;;;17.49;100.00;101117.84;5073349;28;20079;-61
2022/09/07 07:04:14;;;;;;;36.23;25.37;;;;;;;17.49;100.00;101125.78;5074818;28;20047;-60
2022/09/07 07:06:39;;;;;;;34.63;25.50;;;;;;;17.62;100.00;101125.25;5074678;28;20271;-61
2022/09/07 07:09:07;;;;;;;37.80;26.75;;;;;;;17.54;100.00;101115.84;5075213;28;20044;-61
2022/09/07 07:11:33;;;;;;;33.65;26.25;;;;;;;17.61;100.00;101125.28;5075090;28;20028;-60
2022/09/07 07:13:58;;;;;;;34.33;26.17;;;;;;;17.82;100.00;101128.94;5074813;28;20467;-60
2022/09/07 07:16:24;;;;;;;36.67;26.92;;;;;;;17.98;100.00;101127.41;5074815;28;20037;-61
2022/09/07 07:18:54;;;;;;;35.47;27.73;;;;;;;18.08;100.00;101124.34;5074421;28;20070;-59
2022/09/07 07:21:19;;;;;;;35.90;27.80;;;;;;;18.13;100.00;101121.50;5074763;28;20355;-59
2022/09/07 07:23:48;;;;;;;35.80;26.30;;;;;;;18.38;100.00;101129.31;5074587;28;20032;-59
2022/09/07 07:26:22;;;;;;;32.95;26.50;;;;;;;18.50;100.00;101123.53;5074609;28;20036;-60
2022/09/07 07:28:49;;;;;;;33.38;26.50;;;;;;;18.61;100.00;101133.69;5074584;28;20044;-60
2022/09/07 07:31:17;;;;;;;34.63;26.92;;;;;;;18.58;100.00;101134.66;5074405;28;20040;-62
2022/09/07 07:33:45;;;;;;;33.63;28.20;;;;;;;18.54;100.00;101129.53;5074597;28;20119;-61
2022/09/07 07:36:11;;;;;;;37.25;26.98;;;;;;;18.72;100.00;101131.44;5074523;28;20043;-61
2022/09/07 07:38:38;;;;;;;36.80;28.63;;;;;;;18.96;100.00;101135.69;5074501;28;20078;-58
2022/09/07 07:41:04;;;;;;;34.05;27.65;;;;;;;18.98;100.00;101140.94;5071777;28;20196;-59
2022/09/07 07:43:30;;;;;;;32.88;26.50;;;;;;;18.83;100.00;101134.53;5053800;28;20048;-61
2022/09/07 07:45:56;;;;;;;36.05;28.23;;;;;;;18.75;100.00;101133.97;5054121;28;20033;-62
2022/09/07 07:48:21;;;;;;;33.90;26.77;;;;;;;18.69;100.00;101143.06;5054130;28;20045;-61
2022/09/07 07:51:00;;;;;;;34.90;26.48;;;;;;;18.80;100.00;101139.94;5054324;28;20025;-60
2022/09/07 07:53:27;;;;;;;34.70;26.65;;;;;;;18.75;100.00;101148.09;5059352;28;20039;-60
2022/09/07 07:55:53;;;;;;;32.92;26.30;;;;;;;18.88;100.00;101145.75;5073444;28;20036;-60
2022/09/07 07:58:18;;;;;;;33.95;25.80;;;;;;;18.94;100.00;101145.50;5074077;28;20359;-61
2022/09/07 08:00:44;;;;;;;32.22;26.25;;;;;;;19.03;99.53;101146.91;5074059;28;20047;-62
2022/09/07 08:03:09;;;;;;;33.72;26.08;;;;;;;19.14;100.00;101152.59;5073642;28;20032;-61
2022/09/07 08:05:36;;;;;;;31.45;25.67;;;;;;;19.18;98.99;101154.19;5073857;28;20028;-61
2022/09/07 08:08:01;;;;;;;30.95;24.85;;;;;;;19.23;98.37;101146.00;5073986;28;20021;-61
2022/09/07 08:10:28;;;;;;;27.55;23.60;;;;;;;19.24;97.29;101156.56;5063893;28;20423;-62
2022/09/07 08:12:53;;;;;;;27.10;23.63;;;;;;;19.09;97.76;101158.09;5053511;28;20444;-62
2022/09/07 08:15:19;;;;;;;28.13;23.90;;;;;;;18.98;99.18;101154.22;5053651;28;20040;-60
2022/09/07 08:17:46;;;;;;;26.58;23.58;;;;;;;19.02;98.84;101159.31;5053660;28;20033;-61
2022/09/07 08:20:12;;;;;;;31.42;24.17;;;;;;;19.07;99.67;101157.31;5053531;28;20033;-61
2022/09/07 08:22:37;;;;;;;25.55;22.52;;;;;;;19.16;98.53;101165.81;5053764;28;20033;-62
2022/09/07 08:25:03;;;;;;;25.27;22.10;;;;;;;19.16;98.47;101164.03;5053486;28;20450;-62
2022/09/07 08:27:28;;;;;;;24.77;22.10;;;;;;;19.19;98.61;101165.69;5053274;28;20278;-60
2022/09/07 08:29:53;;;;;;;27.07;21.30;;;;;;;19.25;97.09;101168.03;5053225;28;20044;-61
2022/09/07 08:32:18;;;;;;;26.10;22.52;;;;;;;19.27;97.56;101166.19;5053408;28;20275;-61
2022/09/07 08:34:44;;;;;;;25.47;21.00;;;;;;;19.29;97.06;101165.19;5053357;28;20072;-61
2022/09/07 08:37:09;;;;;;;25.20;21.63;;;;;;;19.22;97.77;101161.06;5053396;28;20287;-61
2022/09/07 08:39:35;;;;;;;24.85;21.42;;;;;;;19.30;97.96;101160.75;5053278;28;20033;-61
2022/09/07 08:42:25;;;;;;;24.23;19.83;;;;;;;19.46;96.88;101173.25;5052760;28;20064;-60
2022/09/07 08:45:08;;;;;;;21.05;18.35;;;;;;;19.52;95.86;101169.50;5053076;28;20029;-61
2022/09/07 08:47:51;;;;;;;25.38;20.23;;;;;;;19.68;95.77;101175.84;5053210;28;20417;-61
2022/09/07 08:50:37;;;;;;;20.13;17.05;;;;;;;19.85;92.79;101172.41;5052749;28;20080;-60
2022/09/07 08:53:14;;;;;;;20.88;16.77;;;;;;;20.00;91.99;101173.50;5053092;28;20036;-60
2022/09/07 08:55:46;;;;;;;18.48;16.48;;;;;;;20.35;92.71;101179.78;5052911;28;20099;-60
2022/09/07 08:58:15;;;;;;;;;;;;;;;20.62;91.01;101170.47;5053404;28;20037;-61
2022/09/07 09:00:40;;;;;;;17.88;14.38;;;;;;;20.60;88.01;101179.47;5052596;28;19999;-60
2022/09/07 09:03:20;;;;;;;15.85;13.80;;;;;;;20.57;87.89;101172.50;5052741;28;20119;-62
2022/09/07 09:06:14;;;;;;;14.20;12.45;;;;;;;20.56;88.34;101181.41;5052644;28;20374;-61
2022/09/07 09:08:52;;;;;;;13.90;12.27;;;;;;;20.72;88.25;101179.72;5052551;28;20040;-63
2022/09/07 09:11:24;;;;;;;16.25;12.82;;;;;;;20.69;87.36;101155.06;5052638;28;20033;-62
2022/09/07 09:14:24;;;;;;;13.48;12.07;;;;;;;20.85;88.32;101143.56;5052550;28;20028;-61
2022/09/07 09:16:56;;;;;;;12.20;10.80;;;;;;;21.16;85.96;101168.59;5042785;28;20577;-63
2022/09/07 09:19:43;;;;;;;14.02;10.88;;;;;;;21.22;84.61;101176.28;5052026;28;20464;-62
2022/09/07 09:22:20;;;;;;;12.27;10.77;;;;;;;21.30;83.47;101165.25;5052318;28;20048;-62
2022/09/07 09:24:48;;;;;;;13.15;10.77;;;;;;;21.41;83.47;101171.72;5051988;28;20619;-62
2022/09/07 09:27:14;;;;;;;13.60;9.93;;;;;;;21.49;82.22;101169.50;5052607;28;20033;-61
2022/09/07 09:29:40;;;;;;;14.77;9.88;;;;;;;21.65;79.03;101171.31;5052314;28;20036;-61
2022/09/07 09:32:51;;;;;;;12.20;9.27;;;;;;;21.89;81.30;101164.66;5052077;28;20410;-61
2022/09/07 09:35:35;;;;;;;11.70;8.70;;;;;;;22.13;79.46;101173.16;5049550;28;20494;-62
2022/09/07 09:38:03;;;;;;;12.20;8.43;;;;;;;22.33;78.34;101164.03;5052119;28;20029;-63
2022/09/07 09:40:34;;;;;;;11.75;8.07;;;;;;;22.40;76.43;101176.91;5052040;28;20040;-62
2022/09/07 09:43:17;;;;;;;9.68;7.28;;;;;;;22.39;77.35;101166.31;5051883;28;20442;-61
2022/09/07 09:45:48;;;;;;;9.15;6.72;;;;;;;22.42;73.83;101171.50;5051836;28;20037;-62
2022/09/07 09:48:33;;;;;;;9.77;6.32;;;;;;;22.41;75.94;101170.63;5052269;28;20045;-61
2022/09/07 09:51:01;;;;;;;7.53;4.80;;;;;;;22.44;74.31;101166.94;5051704;28;20566;-63
2022/09/07 09:53:31;;;;;;;8.57;5.20;;;;;;;22.27;74.30;101151.03;5051994;28;20055;-62
2022/09/07 09:55:58;;;;;;;8.23;5.45;;;;;;;22.28;74.94;101166.94;5061927;28;20101;-62
2022/09/07 09:58:36;;;;;;;6.70;4.53;;;;;;;22.34;73.20;101166.56;5072026;28;20083;-62
2022/09/07 10:01:31;;;;;;;8.18;3.90;;;;;;;22.50;74.68;101169.25;5071539;28;20152;-61
2022/09/07 10:04:16;;;;;;;9.10;3.80;;;;;;;22.58;70.47;101162.50;5068270;28;20320;-61
2022/09/07 10:06:49;;;;;;;7.95;3.42;;;;;;;22.65;71.54;101163.03;5071692;28;20419;-61
2022/09/07 10:09:19;;;;;;;4.80;2.85;;;;;;;22.52;71.47;101159.31;5071613;28;20041;-61
2022/09/07 10:11:47;;;;;;;6.93;3.33;;;;;;;22.49;70.09;101156.84;5071906;28;20043;-61
2022/09/07 10:14:26;;;;;;;13.10;4.40;;;;;;;22.58;70.06;101151.84;5071274;28;20474;-60
2022/09/07 10:16:51;;;;;;;6.07;2.97;;;;;;;22.73;70.48;101144.72;5071475;28;20112;-60
2022/09/07 10:19:32;;;;;;;8.18;3.30;;;;;;;22.99;69.12;101143.22;5071537;28;20123;-62
2022/09/07 10:22:23;;;;;;;7.38;2.83;;;;;;;23.26;67.73;101144.19;5070982;28;20067;-60
2022/09/07 10:24:49;;;;;;;8.40;2.55;;;;;;;23.51;68.44;101148.03;5071439;28;20040;-61
2022/09/07 10:27:30;;;;;;;4.43;2.22;;;;;;;23.58;65.82;101146.72;5069004;28;20029;-61
2022/09/07 10:29:55;;;;;;;7.50;2.97;;;;;;;23.37;61.11;101142.69;5069976;28;20036;-63
2022/09/07 10:32:45;;;;;;;7.60;2.30;;;;;;;23.50;64.64;101151.66;5060473;28;20466;-61
2022/09/07 10:35:47;;;;;;;4.75;1.88;;;;;;;23.45;63.42;101145.75;5061561;28;20036;-61
2022/09/07 10:38:17;;;;;;;;;;;;;;;23.64;64.31;101141.00;5066195;28;20123;-63
2022/09/07 10:41:06;;;;;;;5.63;2.30;;;;;;;23.68;61.33;101139.84;5065029;28;19913;-63
2022/09/07 10:43:51;;;;;;;7.18;2.30;;;;;;;23.86;63.18;101136.00;5066043;28;20052;-61
2022/09/07 10:46:35;;;;;;;5.60;2.13;;;;;;;24.03;60.67;101126.91;5064352;28;20040;-60
2022/09/07 10:49:12;;;;;;;6.40;1.90;;;;;;;24.31;60.52;101125.13;5064524;28;20033;-63
2022/09/07 10:51:46;;;;;;;5.80;2.30;;;;;;;24.53;59.66;101123.59;5064406;28;20044;-62
2022/09/07 10:54:57;;;;;;;7.07;2.10;;;;;;;24.74;57.80;101126.63;5063667;28;20341;-61
2022/09/07 10:57:40;;;;;;;5.05;2.20;;;;;;;24.80;58.66;101128.03;5051774;28;20371;-62
2022/09/07 11:00:12;;;;;;;8.48;2.40;;;;;;;24.72;58.35;101125.88;5065430;28;20033;-61
2022/09/07 11:02:49;;;;;;;7.00;2.30;;;;;;;24.59;58.75;101125.81;5074969;28;20359;-59
2022/09/07 11:05:38;;;;;;;9.00;2.40;;;;;;;24.42;59.96;101122.56;5074966;28;20096;-61
2022/09/07 11:08:26;;;;;;;6.13;2.30;;;;;;;24.25;59.04;101131.72;5074910;28;20044;-60
2022/09/07 11:11:30;;;;;;;5.18;1.98;;;;;;;24.12;58.81;101122.75;5074413;28;20526;-59
2022/09/07 11:14:03;;;;;;;4.35;1.88;;;;;;;24.25;59.93;101126.38;5074922;28;20040;-62
2022/09/07 11:16:33;;;;;;;6.28;1.95;;;;;;;24.45;55.62;101115.19;5074790;28;20062;-59
2022/09/07 11:19:07;;;;;;;7.35;2.05;;;;;;;24.47;56.52;101118.63;5074620;28;20044;-62
2022/09/07 11:22:10;;;;;;;4.63;1.70;;;;;;;24.56;57.04;101111.81;5074701;28;20071;-61
2022/09/07 11:24:47;;;;;;;6.07;2.15;;;;;;;24.69;57.45;101112.69;5039357;28;20059;-60
2022/09/07 11:27:32;;;;;;;7.97;2.35;;;;;;;24.58;58.25;101121.47;5074484;28;20058;-61
2022/09/07 11:30:14;;;;;;;5.47;1.92;;;;;;;24.59;57.72;101119.63;5074668;28;20032;-61
2022/09/07 11:32:49;;;;;;;5.68;2.30;;;;;;;24.61;55.68;101102.50;5073787;28;20043;-61